createdAt,value
2023-05-10T00:02:40.610Z,2.50
2023-05-10T00:05:42.477Z,2.17
2023-05-10T00:08:44.291Z,1.20
2023-05-10T00:11:46.018Z,1.30
2023-05-10T00:14:47.589Z,1.43
2023-05-10T00:17:49.262Z,1.67
2023-05-10T00:20:50.930Z,1.20
2023-05-10T00:23:52.581Z,1.27
2023-05-10T00:26:54.122Z,1.67
2023-05-10T00:29:55.748Z,1.57
2023-05-10T00:32:57.399Z,1.87
2023-05-10T00:35:59.027Z,1.10
2023-05-10T00:39:00.723Z,1.30
2023-05-10T00:42:02.581Z,1.20
2023-05-10T00:45:04.604Z,6.30
2023-05-10T00:48:06.440Z,4.63
2023-05-10T00:51:08.151Z,1.10
2023-05-10T00:54:12.563Z,3.63
2023-05-10T00:57:14.179Z,1.20
2023-05-10T01:00:19.108Z,1.37
2023-05-10T01:03:20.840Z,1.20
2023-05-10T01:06:22.681Z,1.40
2023-05-10T01:09:27.201Z,1.20
2023-05-10T01:12:29.152Z,1.73
2023-05-10T01:15:32.021Z,1.23
2023-05-10T01:18:39.786Z,1.07
2023-05-10T01:21:57.411Z,1.07
2023-05-10T01:25:11.665Z,1.40
2023-05-10T01:28:24.975Z,1.30
2023-05-10T01:32:03.193Z,4.10
2023-05-10T01:35:13.849Z,1.47
2023-05-10T01:38:45.209Z,2.17
2023-05-10T01:41:59.862Z,2.77
2023-05-10T01:45:14.391Z,1.33
2023-05-10T01:48:16.974Z,1.93
2023-05-10T01:51:24.685Z,2.07
2023-05-10T01:54:27.708Z,1.50
2023-05-10T01:57:34.329Z,1.30
2023-05-10T02:00:37.615Z,1.87
2023-05-10T02:03:41.333Z,4.23
2023-05-10T02:06:44.337Z,2.37
2023-05-10T02:09:50.196Z,1.90
2023-05-10T02:12:53.417Z,3.03
2023-05-10T02:15:56.020Z,2.33
2023-05-10T02:19:00.010Z,1.70
2023-05-10T02:22:02.802Z,2.87
2023-05-10T02:25:05.029Z,3.10
2023-05-10T02:28:08.202Z,2.40
2023-05-10T02:31:11.469Z,3.90
2023-05-10T02:34:13.719Z,2.87
2023-05-10T02:37:16.954Z,1.67
2023-05-10T02:40:19.356Z,2.20
2023-05-10T02:43:24.716Z,2.43
2023-05-10T02:46:26.461Z,2.77
2023-05-10T02:49:28.096Z,3.00
2023-05-10T02:52:40.276Z,7.40
2023-05-10T02:55:44.666Z,1.97
2023-05-10T02:58:47.063Z,2.50
2023-05-10T03:01:48.744Z,2.30
2023-05-10T03:04:50.678Z,2.80
2023-05-10T03:07:53.191Z,3.60
2023-05-10T03:11:18.931Z,3.60
2023-05-10T03:14:35.701Z,2.90
2023-05-10T03:17:48.566Z,3.67
2023-05-10T03:20:52.345Z,2.93
2023-05-10T03:24:03.955Z,4.10
2023-05-10T03:27:06.727Z,3.10
2023-05-10T03:30:13.353Z,3.40
2023-05-10T03:33:15.197Z,2.83
2023-05-10T03:36:17.062Z,3.43
2023-05-10T03:39:18.729Z,7.07
2023-05-10T03:42:20.458Z,3.60
2023-05-10T03:45:22.148Z,3.70
2023-05-10T03:48:23.754Z,3.23
2023-05-10T03:51:28.930Z,3.60
2023-05-10T03:54:30.603Z,3.93
2023-05-10T03:57:32.234Z,5.10
2023-05-10T04:00:33.989Z,8.03
2023-05-10T04:03:37.305Z,5.43
2023-05-10T04:06:39.196Z,3.90
2023-05-10T04:09:41.194Z,5.00
2023-05-10T04:12:42.908Z,4.50
2023-05-10T04:15:46.105Z,3.90
2023-05-10T04:18:47.909Z,6.50
2023-05-10T04:21:49.557Z,4.60
2023-05-10T04:24:51.120Z,5.10
2023-05-10T04:27:53.191Z,5.03
2023-05-10T04:31:01.051Z,4.57
2023-05-10T04:34:02.786Z,4.90
2023-05-10T04:37:04.419Z,10.10
2023-05-10T04:40:07.045Z,5.43
2023-05-10T04:43:08.697Z,4.73
2023-05-10T04:46:10.485Z,6.73
2023-05-10T04:49:12.501Z,5.17
2023-05-10T04:52:15.281Z,5.57
2023-05-10T04:55:16.985Z,7.70
2023-05-10T04:58:18.617Z,4.43
2023-05-10T05:01:20.210Z,3.67
2023-05-10T05:04:23.835Z,8.33
2023-05-10T05:07:25.509Z,8.97
2023-05-10T05:10:27.144Z,5.10
2023-05-10T05:13:28.814Z,4.03
2023-05-10T05:16:32.274Z,4.07
2023-05-10T05:19:33.933Z,7.77
2023-05-10T05:22:37.218Z,5.37
2023-05-10T05:25:38.877Z,3.80
2023-05-10T05:28:40.479Z,5.23
2023-05-10T05:31:42.124Z,5.10
2023-05-10T05:34:46.321Z,4.17
2023-05-10T05:37:48.064Z,4.27
2023-05-10T05:40:49.640Z,6.20
2023-05-10T05:43:51.414Z,4.23
2023-05-10T05:46:53.100Z,4.60
2023-05-10T05:49:54.670Z,3.77
2023-05-10T05:52:57.457Z,5.53
2023-05-10T05:55:59.761Z,4.83
2023-05-10T05:59:01.420Z,13.37
2023-05-10T06:02:03.103Z,8.87
2023-05-10T06:05:05.092Z,5.73
2023-05-10T06:08:06.843Z,7.97
2023-05-10T06:11:08.409Z,5.57
2023-05-10T06:14:10.211Z,6.33
2023-05-10T06:17:11.871Z,6.87
2023-05-10T06:20:13.950Z,6.37
2023-05-10T06:23:15.572Z,8.93
2023-05-10T06:26:17.233Z,5.17
2023-05-10T06:29:18.841Z,7.33
2023-05-10T06:32:20.446Z,4.80
2023-05-10T06:35:22.239Z,6.90
2023-05-10T06:38:24.053Z,7.90
2023-05-10T06:41:25.676Z,7.67
2023-05-10T06:44:27.285Z,6.17
2023-05-10T06:47:28.960Z,6.27
2023-05-10T06:50:30.577Z,6.40
2023-05-10T06:53:32.170Z,8.90
2023-05-10T06:56:33.749Z,5.60
2023-05-10T06:59:35.411Z,7.20
2023-05-10T07:02:37.209Z,11.00
2023-05-10T07:05:38.976Z,7.03
2023-05-10T07:08:40.666Z,7.17
2023-05-10T07:11:42.431Z,6.63
2023-05-10T07:14:44.023Z,6.20
2023-05-10T07:17:46.506Z,6.77
2023-05-10T07:20:48.230Z,5.63
2023-05-10T07:23:50.437Z,6.07
2023-05-10T07:26:52.003Z,9.30
2023-05-10T07:29:53.565Z,5.67
2023-05-10T07:32:55.157Z,5.87
2023-05-10T07:35:56.768Z,6.20
2023-05-10T07:38:58.672Z,5.60
2023-05-10T07:42:00.293Z,6.20
2023-05-10T07:45:01.858Z,6.33
2023-05-10T07:48:03.625Z,4.53
2023-05-10T07:51:05.505Z,4.73
2023-05-10T07:54:07.256Z,4.53
2023-05-10T07:57:08.940Z,5.27
2023-05-10T08:00:14.111Z,4.13
2023-05-10T08:03:16.360Z,4.23
2023-05-10T08:06:19.577Z,4.30
2023-05-10T08:09:24.670Z,4.70
2023-05-10T08:12:26.394Z,4.23
2023-05-10T08:15:28.012Z,5.03
2023-05-10T08:18:29.647Z,4.83
2023-05-10T08:21:32.166Z,4.00
2023-05-10T08:24:39.327Z,6.03
2023-05-10T08:27:41.189Z,5.90
2023-05-10T08:30:42.842Z,8.30
2023-05-10T08:33:44.958Z,6.80
2023-05-10T08:36:46.608Z,6.57
2023-05-10T08:39:48.941Z,5.40
2023-05-10T08:43:03.498Z,3.67
2023-05-10T08:46:06.457Z,3.13
2023-05-10T08:49:11.265Z,2.60
2023-05-10T08:52:15.706Z,5.60
2023-05-10T08:55:17.805Z,4.73
2023-05-10T08:58:20.477Z,3.07
2023-05-10T09:01:23.223Z,1.93
2023-05-10T09:04:25.886Z,2.20
2023-05-10T09:07:28.765Z,2.10
2023-05-10T09:10:32.017Z,1.83
2023-05-10T09:13:33.834Z,4.50
2023-05-10T09:16:35.766Z,2.03
2023-05-10T09:19:37.367Z,1.70
2023-05-10T09:22:39.273Z,1.90
2023-05-10T09:25:42.932Z,2.33
2023-05-10T09:28:58.645Z,3.23
2023-05-10T09:32:00.311Z,2.40
2023-05-10T09:35:17.878Z,2.80
2023-05-10T09:38:19.970Z,1.60
2023-05-10T09:41:23.359Z,1.73
2023-05-10T09:44:26.991Z,1.93
2023-05-10T09:47:28.898Z,2.10
2023-05-10T09:50:31.377Z,4.17
2023-05-10T09:53:32.931Z,1.80
2023-05-10T09:56:39.798Z,3.73
2023-05-10T09:59:43.864Z,4.30
2023-05-10T10:02:55.062Z,1.80
2023-05-10T10:05:57.545Z,2.03
2023-05-10T10:08:59.199Z,1.33
2023-05-10T10:12:04.669Z,3.40
2023-05-10T10:15:07.766Z,2.33
2023-05-10T10:18:14.451Z,2.00
2023-05-10T10:21:16.565Z,1.77
2023-05-10T10:24:18.203Z,1.50
2023-05-10T10:27:38.330Z,3.10
2023-05-10T10:30:44.918Z,2.50
2023-05-10T10:34:08.261Z,3.73
2023-05-10T10:37:09.882Z,1.80
2023-05-10T10:40:34.494Z,1.63
2023-05-10T10:43:36.568Z,1.47
2023-05-10T10:47:03.357Z,1.50
2023-05-10T10:50:09.247Z,2.53
2023-05-10T10:53:12.917Z,1.50
2023-05-10T10:56:16.203Z,1.50
2023-05-10T10:59:28.975Z,5.37
2023-05-10T11:02:59.654Z,5.83
2023-05-10T11:06:02.737Z,2.33
2023-05-10T11:09:12.484Z,1.37
2023-05-10T11:12:14.203Z,1.50
2023-05-10T11:15:16.048Z,1.77
2023-05-10T11:18:37.706Z,2.50
2023-05-10T11:21:48.583Z,1.10
2023-05-10T11:25:00.069Z,1.50
2023-05-10T11:28:05.364Z,1.70
2023-05-10T11:31:07.196Z,1.73
2023-05-10T11:34:08.882Z,1.50
2023-05-10T11:37:10.601Z,3.10
2023-05-10T11:40:13.062Z,4.47
2023-05-10T11:43:14.739Z,1.20
2023-05-10T11:46:18.834Z,2.40
2023-05-10T11:49:23.983Z,2.10
2023-05-10T11:52:25.565Z,1.50
2023-05-10T11:55:27.453Z,1.30
2023-05-10T11:58:29.008Z,1.33
2023-05-10T12:01:31.484Z,1.77
2023-05-10T12:04:33.393Z,1.30
2023-05-10T12:07:35.066Z,1.37
2023-05-10T12:10:36.733Z,1.30
2023-05-10T12:13:43.837Z,1.30
2023-05-10T12:16:45.833Z,6.67
2023-05-10T12:19:48.102Z,1.30
2023-05-10T12:22:54.909Z,1.60
2023-05-10T12:26:04.845Z,1.60
2023-05-10T12:29:14.594Z,2.10
2023-05-10T12:32:16.254Z,1.30
2023-05-10T12:35:18.177Z,2.97
2023-05-10T12:38:39.310Z,1.30
2023-05-10T12:41:42.895Z,1.30
2023-05-10T12:44:45.576Z,1.57
2023-05-10T12:47:47.208Z,2.30
2023-05-10T12:50:49.286Z,1.90
2023-05-10T12:53:50.947Z,2.03
2023-05-10T12:56:52.566Z,1.93
2023-05-10T12:59:54.694Z,2.47
2023-05-10T13:02:56.316Z,2.50
2023-05-10T13:05:57.972Z,2.87
2023-05-10T13:08:59.579Z,3.67
2023-05-10T13:12:01.379Z,2.73
2023-05-10T13:15:04.299Z,1.87
2023-05-10T13:18:06.182Z,1.93
2023-05-10T13:21:08.462Z,3.60
2023-05-10T13:24:10.901Z,2.03
2023-05-10T13:27:12.507Z,1.60
2023-05-10T13:30:14.326Z,1.90
2023-05-10T13:33:16.136Z,1.80
2023-05-10T13:36:17.744Z,1.63
2023-05-10T13:39:19.364Z,2.13
2023-05-10T13:42:21.312Z,1.70
2023-05-10T13:45:22.987Z,2.90
2023-05-10T13:48:24.607Z,2.93
2023-05-10T13:51:26.196Z,2.40
2023-05-10T13:54:30.346Z,3.20
2023-05-10T13:57:32.020Z,3.17
2023-05-10T14:00:33.666Z,3.97
2023-05-10T14:03:35.383Z,2.60
2023-05-10T14:06:37.800Z,3.00
2023-05-10T14:09:39.416Z,4.10
2023-05-10T14:12:41.021Z,5.70
2023-05-10T14:15:42.819Z,2.53
2023-05-10T14:18:44.472Z,2.10
2023-05-10T14:21:46.168Z,3.83
2023-05-10T14:24:48.247Z,2.90
2023-05-10T14:27:49.835Z,2.63
2023-05-10T14:30:51.648Z,1.73
2023-05-10T14:33:53.931Z,4.50
2023-05-10T14:36:56.181Z,2.83
2023-05-10T14:39:57.830Z,2.10
2023-05-10T14:42:59.426Z,2.57
2023-05-10T14:46:01.107Z,2.93
2023-05-10T14:49:02.777Z,2.67
2023-05-10T14:52:04.435Z,6.97
2023-05-10T14:55:06.670Z,3.33
2023-05-10T14:58:08.241Z,3.10
2023-05-10T15:01:09.902Z,3.23
2023-05-10T15:04:13.812Z,2.33
2023-05-10T15:07:17.255Z,2.90
2023-05-10T15:10:19.154Z,2.20
2023-05-10T15:13:20.784Z,2.17
2023-05-10T15:16:22.958Z,3.47
2023-05-10T15:19:24.724Z,4.00
2023-05-10T15:22:26.563Z,4.90
2023-05-10T15:25:29.622Z,2.70
2023-05-10T15:28:32.425Z,2.57
2023-05-10T15:31:37.610Z,3.73
2023-05-10T15:34:39.272Z,3.53
2023-05-10T15:37:40.845Z,2.30
2023-05-10T15:40:42.474Z,4.73
2023-05-10T15:43:44.054Z,2.50
2023-05-10T15:46:46.201Z,2.67
2023-05-10T15:49:47.772Z,2.97
2023-05-10T15:52:49.552Z,2.73
2023-05-10T15:55:51.581Z,3.87
2023-05-10T15:58:53.124Z,1.83
2023-05-10T16:01:54.977Z,3.53
2023-05-10T16:04:56.562Z,5.03
2023-05-10T16:07:58.227Z,2.03
2023-05-10T16:11:00.658Z,1.90
2023-05-10T16:14:02.246Z,2.00
2023-05-10T16:17:04.633Z,6.37
2023-05-10T16:20:07.230Z,3.17
2023-05-10T16:23:08.878Z,2.87
2023-05-10T16:26:10.456Z,1.87
2023-05-10T16:29:12.044Z,2.90
2023-05-10T16:32:13.663Z,2.57
2023-05-10T16:35:15.458Z,2.60
2023-05-10T16:38:17.305Z,2.00
2023-05-10T16:41:18.886Z,1.97
2023-05-10T16:44:21.091Z,1.90
2023-05-10T16:47:26.477Z,2.40
2023-05-10T16:50:28.178Z,1.87
2023-05-10T16:53:30.930Z,2.20
2023-05-10T16:56:32.501Z,2.00
2023-05-10T16:59:34.138Z,2.10
2023-05-10T17:02:35.898Z,3.73
2023-05-10T17:05:37.785Z,4.40
2023-05-10T17:08:39.449Z,2.40
2023-05-10T17:11:42.085Z,2.00
2023-05-10T17:14:43.739Z,4.30
2023-05-10T17:17:45.354Z,3.67
2023-05-10T17:20:47.014Z,3.73
2023-05-10T17:23:48.611Z,2.00
2023-05-10T17:26:50.225Z,4.43
2023-05-10T17:29:59.067Z,2.23
2023-05-10T17:33:01.061Z,2.47
2023-05-10T17:36:02.680Z,3.00
2023-05-10T17:39:04.315Z,4.00
2023-05-10T17:42:06.120Z,2.17
2023-05-10T17:45:08.265Z,2.40
2023-05-10T17:48:11.240Z,3.17
2023-05-10T17:51:13.182Z,3.90
2023-05-10T17:54:15.017Z,2.60
2023-05-10T17:57:17.169Z,3.67
2023-05-10T18:00:18.907Z,2.30
2023-05-10T18:03:20.783Z,2.43
2023-05-10T18:06:22.560Z,2.00
2023-05-10T18:09:24.145Z,2.93
2023-05-10T18:12:25.931Z,3.63
2023-05-10T18:15:27.726Z,1.93
2023-05-10T18:18:29.420Z,2.03
2023-05-10T18:21:31.308Z,2.10
2023-05-10T18:27:38.194Z,1.77
2023-05-10T18:30:41.051Z,3.57
2023-05-10T18:33:42.838Z,3.70
2023-05-10T18:36:44.618Z,3.00
2023-05-10T18:39:46.331Z,4.60
2023-05-10T18:42:49.965Z,2.00
2023-05-10T18:45:52.365Z,1.77
2023-05-10T18:48:54.862Z,1.83
2023-05-10T18:51:56.457Z,1.80
2023-05-10T18:54:58.141Z,1.73
2023-05-10T18:58:00.278Z,2.80
2023-05-10T19:01:02.233Z,3.63
2023-05-10T19:04:03.996Z,2.60
2023-05-10T19:07:05.789Z,1.90
2023-05-10T19:10:07.771Z,1.87
2023-05-10T19:13:09.404Z,3.03
2023-05-10T19:16:12.991Z,1.57
2023-05-10T19:19:14.959Z,1.50
2023-05-10T19:22:16.614Z,1.77
2023-05-10T19:25:19.357Z,1.60
2023-05-10T19:28:22.643Z,1.67
2023-05-10T19:31:24.412Z,4.07
2023-05-10T19:34:27.244Z,1.97
2023-05-10T19:37:28.828Z,1.70
2023-05-10T19:40:30.634Z,2.40
2023-05-10T19:43:37.392Z,1.90
2023-05-10T19:46:39.205Z,2.80
2023-05-10T19:49:40.922Z,2.30
2023-05-10T19:52:42.679Z,2.47
2023-05-10T19:55:44.331Z,1.70
2023-05-10T19:58:46.105Z,4.27
2023-05-10T20:01:47.652Z,2.37
2023-05-10T20:04:49.932Z,1.73
2023-05-10T20:07:51.618Z,1.80
2023-05-10T20:10:53.289Z,2.10
2023-05-10T20:13:54.961Z,1.80
2023-05-10T20:16:56.673Z,2.30
2023-05-10T20:19:58.258Z,2.27
2023-05-10T20:22:59.864Z,1.40
2023-05-10T20:26:01.491Z,2.67
2023-05-10T20:29:03.611Z,3.43
2023-05-10T20:32:05.730Z,2.03
2023-05-10T20:35:07.695Z,2.43
2023-05-10T20:38:09.263Z,3.33
2023-05-10T20:41:10.843Z,1.87
2023-05-10T20:44:12.430Z,3.20
2023-05-10T20:47:15.299Z,2.30
2023-05-10T20:50:17.385Z,2.07
2023-05-10T20:53:19.382Z,2.13
2023-05-10T20:56:21.310Z,1.50
2023-05-10T20:59:23.167Z,3.37
2023-05-10T21:02:24.834Z,5.88
2023-05-10T21:05:26.712Z,1.47
2023-05-10T21:08:28.451Z,4.57
2023-05-10T21:11:30.242Z,2.30
2023-05-10T21:14:31.831Z,1.70
2023-05-10T21:17:33.628Z,1.50
2023-05-10T21:20:35.237Z,4.70
2023-05-10T21:23:36.793Z,3.13
2023-05-10T21:26:38.538Z,2.43
2023-05-10T21:29:40.685Z,1.83
2023-05-10T21:32:42.537Z,2.70
2023-05-10T21:35:44.163Z,3.13
2023-05-10T21:38:46.390Z,3.40
2023-05-10T21:41:47.983Z,2.27
2023-05-10T21:44:49.645Z,4.80
2023-05-10T21:47:51.273Z,5.60
2023-05-10T21:50:52.892Z,2.63
2023-05-10T21:53:54.586Z,7.13
2023-05-10T21:56:56.142Z,2.10
2023-05-10T21:59:57.786Z,2.40
2023-05-10T22:02:59.488Z,2.37
2023-05-10T22:06:01.163Z,2.90
2023-05-10T22:09:02.871Z,2.90
2023-05-10T22:12:04.732Z,2.43
2023-05-10T22:15:10.205Z,2.13
2023-05-10T22:18:12.535Z,3.53
2023-05-10T22:21:14.191Z,1.63
2023-05-10T22:24:15.790Z,2.10
2023-05-10T22:27:17.888Z,1.90
2023-05-10T22:30:20.137Z,4.13
2023-05-10T22:33:22.013Z,3.03
2023-05-10T22:36:23.615Z,1.93
2023-05-10T22:39:25.379Z,1.80
2023-05-10T22:42:27.045Z,5.43
2023-05-10T22:45:28.597Z,4.67
2023-05-10T22:48:31.258Z,2.43
2023-05-10T22:51:32.853Z,2.10
2023-05-10T22:54:36.239Z,1.60
2023-05-10T22:57:38.123Z,1.90
2023-05-10T23:00:40.277Z,2.93
2023-05-10T23:03:42.218Z,1.70
2023-05-10T23:06:43.782Z,2.23
2023-05-10T23:09:46.061Z,3.40
2023-05-10T23:12:48.081Z,3.60
2023-05-10T23:15:49.681Z,2.07
2023-05-10T23:18:51.385Z,4.47
2023-05-10T23:21:53.040Z,2.53
2023-05-10T23:24:54.691Z,3.27
2023-05-10T23:27:56.969Z,2.00
2023-05-10T23:30:59.066Z,2.13
2023-05-10T23:34:00.632Z,2.30
2023-05-10T23:37:02.428Z,2.50
2023-05-10T23:40:04.588Z,2.00
2023-05-10T23:43:06.635Z,2.80
2023-05-10T23:46:08.254Z,2.00
2023-05-10T23:49:09.869Z,2.50
2023-05-10T23:52:11.429Z,2.27
2023-05-10T23:55:13.069Z,4.53
2023-05-10T23:58:14.816Z,3.20
